createdAt,value
2023-03-19T00:02:17.472Z,17.80
2023-03-19T00:04:46.724Z,16.37
2023-03-19T00:07:15.875Z,20.77
2023-03-19T00:09:44.279Z,17.63
2023-03-19T00:12:13.197Z,17.20
2023-03-19T00:14:43.614Z,17.80
2023-03-19T00:17:12.050Z,19.23
2023-03-19T00:19:41.021Z,21.57
2023-03-19T00:22:09.815Z,19.77
2023-03-19T00:24:38.290Z,22.23
2023-03-19T00:27:07.000Z,24.67
2023-03-19T00:29:36.372Z,23.57
2023-03-19T00:32:07.392Z,20.70
2023-03-19T00:34:36.122Z,18.53
2023-03-19T00:37:04.480Z,18.20
2023-03-19T00:39:33.078Z,20.50
2023-03-19T00:42:01.586Z,18.80
2023-03-19T00:44:30.036Z,17.70
2023-03-19T00:46:58.508Z,17.40
2023-03-19T00:49:28.513Z,20.00
2023-03-19T00:51:57.337Z,17.77
2023-03-19T00:54:27.591Z,17.07
2023-03-19T00:56:56.203Z,19.63
2023-03-19T00:59:25.609Z,17.10
2023-03-19T01:01:54.413Z,17.97
2023-03-19T01:04:24.125Z,20.83
2023-03-19T01:06:54.024Z,22.47
2023-03-19T01:09:22.938Z,20.93
2023-03-19T01:11:51.459Z,21.67
2023-03-19T01:14:19.897Z,23.60
2023-03-19T01:16:48.366Z,24.47
2023-03-19T01:19:16.989Z,27.67
2023-03-19T01:21:46.538Z,25.83
2023-03-19T01:24:16.807Z,25.83
2023-03-19T01:26:45.461Z,28.67
2023-03-19T01:29:13.819Z,28.20
2023-03-19T01:31:42.280Z,27.57
2023-03-19T01:34:11.418Z,23.27
2023-03-19T01:36:40.070Z,21.93
2023-03-19T01:39:08.473Z,22.47
2023-03-19T01:41:38.231Z,22.97
2023-03-19T01:44:21.734Z,21.07
2023-03-19T01:46:50.385Z,21.57
2023-03-19T01:49:19.238Z,22.47
2023-03-19T01:51:47.915Z,23.77
2023-03-19T01:54:17.324Z,24.40
2023-03-19T01:56:47.321Z,23.63
2023-03-19T01:59:17.454Z,26.00
2023-03-19T02:01:48.148Z,23.50
2023-03-19T02:04:16.587Z,23.43
2023-03-19T02:06:45.209Z,26.50
2023-03-19T02:09:14.268Z,22.50
2023-03-19T02:11:42.706Z,20.87
2023-03-19T02:14:13.659Z,19.73
2023-03-19T02:16:42.040Z,21.00
2023-03-19T02:19:11.490Z,23.53
2023-03-19T02:21:39.927Z,23.00
2023-03-19T02:24:09.169Z,19.20
2023-03-19T02:26:38.988Z,20.63
2023-03-19T02:29:07.525Z,20.40
2023-03-19T02:31:35.903Z,22.23
2023-03-19T02:34:04.667Z,19.33
2023-03-19T02:36:34.400Z,19.30
2023-03-19T02:39:02.978Z,23.43
2023-03-19T02:41:31.890Z,21.27
2023-03-19T02:44:01.737Z,23.47
2023-03-19T02:46:30.383Z,21.03
2023-03-19T02:48:59.011Z,22.90
2023-03-19T02:51:27.427Z,20.97
2023-03-19T02:53:55.890Z,22.87
2023-03-19T02:56:24.892Z,21.57
2023-03-19T02:58:53.467Z,24.00
2023-03-19T03:01:23.508Z,22.73
2023-03-19T03:03:51.991Z,23.63
2023-03-19T03:06:20.485Z,25.67
2023-03-19T03:08:48.954Z,21.30
2023-03-19T03:11:17.409Z,26.13
2023-03-19T03:13:45.995Z,26.90
2023-03-19T03:16:14.336Z,29.33
2023-03-19T03:18:44.109Z,29.70
2023-03-19T03:21:12.640Z,31.20
2023-03-19T03:23:41.262Z,35.17
2023-03-19T03:26:09.772Z,35.83
2023-03-19T03:28:38.326Z,30.23
2023-03-19T03:31:06.820Z,33.80
2023-03-19T03:33:35.277Z,32.17
2023-03-19T03:36:05.132Z,31.57
2023-03-19T03:38:33.692Z,32.87
2023-03-19T03:41:02.332Z,32.73
2023-03-19T03:43:30.735Z,34.07
2023-03-19T03:45:59.611Z,36.33
2023-03-19T03:48:28.523Z,37.23
2023-03-19T03:50:57.169Z,37.77
2023-03-19T03:53:27.012Z,41.77
2023-03-19T03:55:55.801Z,42.23
2023-03-19T03:58:24.294Z,38.77
2023-03-19T04:00:52.610Z,39.27
2023-03-19T04:03:21.088Z,39.40
2023-03-19T04:05:49.829Z,40.23
2023-03-19T04:08:18.358Z,40.17
2023-03-19T04:10:48.150Z,45.00
2023-03-19T04:13:16.760Z,43.47
2023-03-19T04:15:45.419Z,48.07
2023-03-19T04:18:13.773Z,46.30
2023-03-19T04:20:43.081Z,50.87
2023-03-19T04:23:11.561Z,47.17
2023-03-19T04:25:41.558Z,50.20
2023-03-19T04:28:11.502Z,46.00
2023-03-19T04:30:40.147Z,51.10
2023-03-19T04:33:08.678Z,50.93
2023-03-19T04:35:37.270Z,49.00
2023-03-19T04:38:05.886Z,49.77
2023-03-19T04:40:34.457Z,47.33
2023-03-19T04:43:03.028Z,48.17
2023-03-19T04:45:33.107Z,49.57
2023-03-19T04:48:02.479Z,48.27
2023-03-19T04:50:31.554Z,50.13
2023-03-19T04:53:00.224Z,55.47
2023-03-19T04:55:28.564Z,59.07
2023-03-19T04:57:57.116Z,57.07
2023-03-19T05:00:26.141Z,52.30
2023-03-19T05:02:55.953Z,62.80
2023-03-19T05:05:24.451Z,60.20
2023-03-19T05:07:52.872Z,64.67
2023-03-19T05:10:21.339Z,59.93
2023-03-19T05:12:49.748Z,62.70
2023-03-19T05:15:18.381Z,59.87
2023-03-19T05:17:46.789Z,61.33
2023-03-19T05:20:16.755Z,62.23
2023-03-19T05:22:45.146Z,60.03
2023-03-19T05:25:13.546Z,62.80
2023-03-19T05:27:41.895Z,63.13
2023-03-19T05:30:11.020Z,72.50
2023-03-19T05:32:40.783Z,64.70
2023-03-19T05:35:09.808Z,72.57
2023-03-19T05:37:39.856Z,75.20
2023-03-19T05:40:08.448Z,73.67
2023-03-19T05:42:36.900Z,82.00
2023-03-19T05:45:05.702Z,71.00
2023-03-19T05:47:35.126Z,72.17
2023-03-19T05:50:03.566Z,82.93
2023-03-19T05:52:32.608Z,85.17
2023-03-19T05:55:02.544Z,86.70
2023-03-19T05:57:31.431Z,88.00
2023-03-19T05:59:59.951Z,79.40
2023-03-19T06:02:28.402Z,90.87
2023-03-19T06:04:57.147Z,91.37
2023-03-19T06:07:25.582Z,86.27
2023-03-19T06:09:54.295Z,91.27
2023-03-19T06:12:24.929Z,91.90
2023-03-19T06:14:53.411Z,120.53
2023-03-19T06:17:22.338Z,102.53
2023-03-19T06:19:50.786Z,106.17
2023-03-19T06:22:19.379Z,103.77
2023-03-19T06:24:48.258Z,106.00
2023-03-19T06:27:16.830Z,93.20
2023-03-19T06:29:46.783Z,104.00
2023-03-19T06:32:15.240Z,98.53
2023-03-19T06:34:43.978Z,115.10
2023-03-19T06:37:12.432Z,102.07
2023-03-19T06:39:40.869Z,106.07
2023-03-19T06:42:09.538Z,110.03
2023-03-19T06:44:38.053Z,108.33
2023-03-19T06:47:08.598Z,100.90
2023-03-19T06:49:37.468Z,94.97
2023-03-19T06:52:06.247Z,96.17
2023-03-19T06:54:36.078Z,93.13
2023-03-19T06:57:05.808Z,86.30
2023-03-19T06:59:34.504Z,92.50
2023-03-19T07:02:03.246Z,91.30
2023-03-19T07:04:33.118Z,78.37
2023-03-19T07:07:02.568Z,80.30
2023-03-19T07:09:31.190Z,82.83
2023-03-19T07:11:59.616Z,73.60
2023-03-19T07:14:28.659Z,78.73
2023-03-19T07:16:57.025Z,71.87
2023-03-19T07:19:25.877Z,71.83
2023-03-19T07:21:55.669Z,73.77
2023-03-19T07:24:24.290Z,67.47
2023-03-19T07:26:52.786Z,66.20
2023-03-19T07:29:21.280Z,75.83
2023-03-19T07:31:49.886Z,64.87
2023-03-19T07:34:18.399Z,69.33
2023-03-19T07:36:47.171Z,66.53
2023-03-19T07:39:17.016Z,72.53
2023-03-19T07:41:47.780Z,78.80
2023-03-19T07:44:16.156Z,67.27
2023-03-19T07:46:44.605Z,69.30
2023-03-19T07:49:13.156Z,67.43
2023-03-19T07:51:41.752Z,73.83
2023-03-19T07:54:10.265Z,74.07
2023-03-19T07:56:40.095Z,77.10
2023-03-19T07:59:08.750Z,79.67
2023-03-19T08:01:37.160Z,78.03
2023-03-19T08:04:05.633Z,77.07
2023-03-19T08:06:34.448Z,76.40
2023-03-19T08:09:03.053Z,72.93
2023-03-19T08:11:31.755Z,80.00
2023-03-19T08:14:01.688Z,86.63
2023-03-19T08:16:30.147Z,79.27
2023-03-19T08:18:58.590Z,94.27
2023-03-19T08:21:27.418Z,94.70
2023-03-19T08:23:55.851Z,88.73
2023-03-19T08:26:24.297Z,89.97
2023-03-19T08:28:52.930Z,93.17
2023-03-19T08:31:23.322Z,98.23
2023-03-19T08:33:52.684Z,91.07
2023-03-19T08:36:21.301Z,80.97
2023-03-19T08:38:54.636Z,83.80
2023-03-19T08:41:23.100Z,93.83
2023-03-19T08:43:51.640Z,86.13
2023-03-19T08:46:34.736Z,81.27
2023-03-19T08:49:06.476Z,80.90
2023-03-19T08:51:34.932Z,95.17
2023-03-19T08:54:03.591Z,89.70
2023-03-19T08:56:31.974Z,81.53
2023-03-19T08:59:00.514Z,85.77
2023-03-19T09:01:30.563Z,84.70
2023-03-19T09:03:58.950Z,84.60
2023-03-19T09:06:27.562Z,88.10
2023-03-19T09:08:56.163Z,85.47
2023-03-19T09:11:24.581Z,78.07
2023-03-19T09:13:53.144Z,72.30
2023-03-19T09:16:21.690Z,65.47
2023-03-19T09:18:51.869Z,48.67
2023-03-19T09:21:20.374Z,62.17
2023-03-19T09:23:53.129Z,56.20
2023-03-19T09:26:21.757Z,60.80
2023-03-19T09:28:50.373Z,59.23
2023-03-19T09:31:18.789Z,55.10
2023-03-19T09:33:47.354Z,60.93
2023-03-19T09:36:17.306Z,55.80
2023-03-19T09:38:46.670Z,57.23
2023-03-19T09:41:16.457Z,66.30
2023-03-19T09:43:52.969Z,58.60
2023-03-19T09:46:22.863Z,52.87
2023-03-19T09:48:52.338Z,56.63
2023-03-19T09:51:23.581Z,61.33
2023-03-19T09:53:52.852Z,55.87
2023-03-19T09:56:21.182Z,59.13
2023-03-19T09:58:49.616Z,68.57
2023-03-19T10:01:22.901Z,57.00
2023-03-19T10:03:54.258Z,59.57
2023-03-19T10:06:27.486Z,56.20
2023-03-19T10:08:59.098Z,58.27
2023-03-19T10:11:31.265Z,51.83
2023-03-19T10:14:02.101Z,57.83
2023-03-19T10:16:30.670Z,52.87
2023-03-19T10:19:00.482Z,57.20
2023-03-19T10:21:31.045Z,62.90
2023-03-19T10:24:00.335Z,62.83
2023-03-19T10:26:31.822Z,62.57
2023-03-19T10:29:01.954Z,66.70
2023-03-19T10:31:30.658Z,65.73
2023-03-19T10:34:00.659Z,57.87
2023-03-19T10:36:29.406Z,66.80
2023-03-19T10:38:59.163Z,67.63
2023-03-19T10:41:32.781Z,66.80
2023-03-19T10:44:02.002Z,62.30
2023-03-19T10:46:30.795Z,60.23
2023-03-19T10:48:59.283Z,65.63
2023-03-19T10:51:28.025Z,62.50
2023-03-19T10:53:56.821Z,56.80
2023-03-19T10:56:27.100Z,46.53
2023-03-19T10:58:59.005Z,51.83
2023-03-19T11:01:30.864Z,48.83
2023-03-19T11:03:59.647Z,40.53
2023-03-19T11:06:28.738Z,41.77
2023-03-19T11:08:58.132Z,40.57
2023-03-19T11:11:30.051Z,40.70
2023-03-19T11:14:01.611Z,37.23
2023-03-19T11:16:30.333Z,40.93
2023-03-19T11:18:58.760Z,39.03
2023-03-19T11:21:33.210Z,42.87
2023-03-19T11:24:03.490Z,46.20
2023-03-19T11:26:39.915Z,41.13
2023-03-19T11:29:11.496Z,48.73
2023-03-19T11:31:43.706Z,47.97
2023-03-19T11:34:17.697Z,45.70
2023-03-19T11:36:47.510Z,48.53
2023-03-19T11:39:19.602Z,47.30
2023-03-19T11:41:54.520Z,48.07
2023-03-19T11:44:23.927Z,50.50
2023-03-19T11:46:55.628Z,48.70
2023-03-19T11:49:29.901Z,50.23
2023-03-19T11:52:02.466Z,43.43
2023-03-19T11:54:33.279Z,46.17
2023-03-19T11:57:04.007Z,44.43
2023-03-19T11:59:44.636Z,56.67
2023-03-19T12:02:22.817Z,49.13
2023-03-19T12:04:53.942Z,57.83
2023-03-19T12:07:23.785Z,66.97
2023-03-19T12:09:55.018Z,57.43
2023-03-19T12:12:27.108Z,57.70
2023-03-19T12:14:59.676Z,55.43
2023-03-19T12:17:31.729Z,54.80
2023-03-19T12:20:04.048Z,47.80
2023-03-19T12:22:36.404Z,57.97
2023-03-19T12:25:14.034Z,54.17
2023-03-19T12:27:44.652Z,48.27
2023-03-19T12:30:18.497Z,54.60
2023-03-19T12:32:51.824Z,53.10
2023-03-19T12:35:20.971Z,53.63
2023-03-19T12:37:52.600Z,48.67
2023-03-19T12:40:24.716Z,52.47
2023-03-19T12:42:54.986Z,45.80
2023-03-19T12:45:26.617Z,43.07
2023-03-19T12:47:57.219Z,43.67
2023-03-19T12:50:26.369Z,40.67
2023-03-19T12:52:57.838Z,43.10
2023-03-19T12:55:28.627Z,34.20
2023-03-19T12:57:58.900Z,37.50
2023-03-19T13:00:28.764Z,34.87
2023-03-19T13:02:58.368Z,35.93
2023-03-19T13:05:28.929Z,28.33
2023-03-19T13:07:59.716Z,28.40
2023-03-19T13:10:28.205Z,24.93
2023-03-19T13:12:58.153Z,30.07
2023-03-19T13:15:28.257Z,28.63
2023-03-19T13:18:01.987Z,23.17
2023-03-19T13:20:32.097Z,24.93
2023-03-19T13:23:02.023Z,20.97
2023-03-19T13:25:33.241Z,26.17
2023-03-19T13:28:03.027Z,20.63
2023-03-19T13:30:32.257Z,21.07
2023-03-19T13:33:04.371Z,25.93
2023-03-19T13:35:36.348Z,31.97
2023-03-19T13:38:06.202Z,30.10
2023-03-19T13:40:39.055Z,32.03
2023-03-19T13:43:27.321Z,35.00
2023-03-19T13:45:57.318Z,32.13
2023-03-19T13:48:26.535Z,28.73
2023-03-19T13:50:57.056Z,27.07
2023-03-19T13:53:35.544Z,30.90
2023-03-19T13:56:12.805Z,27.83
2023-03-19T13:58:54.327Z,29.10
2023-03-19T14:01:41.328Z,32.97
2023-03-19T14:04:17.694Z,28.83
2023-03-19T14:06:46.957Z,25.00
2023-03-19T14:09:39.905Z,23.57
2023-03-19T14:12:21.915Z,26.00
2023-03-19T14:14:52.394Z,22.83
2023-03-19T14:17:21.805Z,17.50
2023-03-19T14:19:50.503Z,16.07
2023-03-19T14:22:22.799Z,18.10
2023-03-19T14:24:58.256Z,12.23
2023-03-19T14:27:29.538Z,12.70
2023-03-19T14:30:00.789Z,15.03
2023-03-19T14:32:32.844Z,15.43
2023-03-19T14:35:01.354Z,15.20
2023-03-19T14:37:34.641Z,11.00
2023-03-19T14:40:05.693Z,13.00
2023-03-19T14:42:34.462Z,14.17
2023-03-19T14:45:22.216Z,16.23
2023-03-19T14:47:54.581Z,14.80
2023-03-19T14:50:42.015Z,16.20
2023-03-19T14:53:14.708Z,16.10
2023-03-19T14:55:43.580Z,16.30
2023-03-19T14:58:13.042Z,19.50
2023-03-19T15:00:47.095Z,19.50
2023-03-19T15:03:20.940Z,23.03
2023-03-19T15:05:50.818Z,25.17
2023-03-19T15:08:22.136Z,26.97
2023-03-19T15:10:53.128Z,23.23
2023-03-19T15:13:27.258Z,20.33
2023-03-19T15:16:03.205Z,23.00
2023-03-19T15:18:31.751Z,21.33
2023-03-19T15:21:00.586Z,17.63
2023-03-19T15:23:29.674Z,18.30
2023-03-19T15:26:00.283Z,19.23
2023-03-19T15:28:29.091Z,17.87
2023-03-19T15:31:05.634Z,18.67
2023-03-19T15:33:44.796Z,18.53
2023-03-19T15:36:16.372Z,18.20
2023-03-19T15:38:45.667Z,21.40
2023-03-19T15:41:14.228Z,22.77
2023-03-19T15:43:42.756Z,25.27
2023-03-19T15:46:12.551Z,28.30
2023-03-19T15:48:43.261Z,27.57
2023-03-19T15:51:11.819Z,31.07
2023-03-19T15:53:40.295Z,36.23
2023-03-19T15:56:09.407Z,34.80
2023-03-19T15:58:39.646Z,30.40
2023-03-19T16:01:08.672Z,35.77
2023-03-19T16:03:38.982Z,34.73
2023-03-19T16:06:09.468Z,26.30
2023-03-19T16:08:38.085Z,24.87
2023-03-19T16:11:16.040Z,23.53
2023-03-19T16:13:48.302Z,25.60
2023-03-19T16:16:17.704Z,28.97
2023-03-19T16:18:50.747Z,31.23
2023-03-19T16:21:20.778Z,33.37
2023-03-19T16:23:52.492Z,34.90
2023-03-19T16:26:22.226Z,38.87
2023-03-19T16:28:51.931Z,36.63
2023-03-19T16:31:26.471Z,33.37
2023-03-19T16:33:55.498Z,35.77
2023-03-19T16:36:25.472Z,35.17
2023-03-19T16:38:57.801Z,34.37
2023-03-19T16:41:27.472Z,37.50
2023-03-19T16:43:56.239Z,35.77
2023-03-19T16:46:24.841Z,34.93
2023-03-19T16:48:53.288Z,30.23
2023-03-19T16:51:21.866Z,32.57
2023-03-19T16:53:51.779Z,29.67
2023-03-19T16:56:20.352Z,30.53
2023-03-19T16:58:49.006Z,28.37
2023-03-19T17:01:18.087Z,29.87
2023-03-19T17:03:47.076Z,34.23
2023-03-19T17:06:16.059Z,27.43
2023-03-19T17:08:44.613Z,26.00
2023-03-19T17:11:26.288Z,25.53
2023-03-19T17:13:55.149Z,23.00
2023-03-19T17:16:24.028Z,25.07
2023-03-19T17:18:52.981Z,24.57
2023-03-19T17:21:23.816Z,17.33
2023-03-19T17:23:53.188Z,18.17
2023-03-19T17:26:23.979Z,26.27
2023-03-19T17:28:53.773Z,17.63
2023-03-19T17:31:23.319Z,23.40
2023-03-19T17:33:52.301Z,20.67
2023-03-19T17:36:20.881Z,14.90
2023-03-19T17:38:49.240Z,15.93
2023-03-19T17:41:18.625Z,20.63
2023-03-19T17:43:48.645Z,19.33
2023-03-19T17:46:17.428Z,22.33
2023-03-19T17:48:46.035Z,13.90
2023-03-19T17:51:14.452Z,20.43
2023-03-19T17:53:43.356Z,16.47
2023-03-19T17:56:16.060Z,18.87
2023-03-19T17:58:44.794Z,14.73
2023-03-19T18:01:24.533Z,24.57
2023-03-19T18:03:53.605Z,23.73
2023-03-19T18:06:22.718Z,20.47
2023-03-19T18:08:51.558Z,21.60
2023-03-19T18:11:20.088Z,27.03
2023-03-19T18:13:48.676Z,19.03
2023-03-19T18:16:20.330Z,19.23
2023-03-19T18:18:48.734Z,22.87
2023-03-19T18:21:18.438Z,16.77
2023-03-19T18:23:46.903Z,20.73
2023-03-19T18:26:17.108Z,14.77
2023-03-19T18:28:45.878Z,16.23
2023-03-19T18:31:15.585Z,18.80
2023-03-19T18:33:45.540Z,14.63
2023-03-19T18:36:14.785Z,10.23
2023-03-19T18:38:43.201Z,15.13
2023-03-19T18:41:11.932Z,13.90
2023-03-19T18:43:40.421Z,15.67
2023-03-19T18:46:10.982Z,13.53
2023-03-19T18:48:39.572Z,14.17
2023-03-19T18:51:10.958Z,11.07
2023-03-19T18:53:39.658Z,11.43
2023-03-19T18:56:12.779Z,14.53
2023-03-19T18:58:42.010Z,10.20
2023-03-19T19:01:11.500Z,12.03
2023-03-19T19:03:40.241Z,12.23
2023-03-19T19:06:13.421Z,18.83
2023-03-19T19:08:42.206Z,13.93
2023-03-19T19:11:10.610Z,14.27
2023-03-19T19:13:55.262Z,13.17
2023-03-19T19:16:24.839Z,11.37
2023-03-19T19:18:53.995Z,15.10
2023-03-19T19:21:24.594Z,15.10
2023-03-19T19:23:53.142Z,16.93
2023-03-19T19:26:23.093Z,18.93
2023-03-19T19:28:51.769Z,18.27
2023-03-19T19:31:23.223Z,21.50
2023-03-19T19:33:51.780Z,13.97
2023-03-19T19:36:20.284Z,15.33
2023-03-19T19:38:51.936Z,20.07
2023-03-19T19:41:21.032Z,14.93
2023-03-19T19:43:49.499Z,17.60
2023-03-19T19:46:18.106Z,17.80
2023-03-19T19:48:46.747Z,22.93
2023-03-19T19:51:19.265Z,17.10
2023-03-19T19:53:48.397Z,19.63
2023-03-19T19:56:19.032Z,16.33
2023-03-19T19:58:47.613Z,22.60
2023-03-19T20:01:16.946Z,20.73
2023-03-19T20:03:45.785Z,18.37
2023-03-19T20:06:14.487Z,16.23
2023-03-19T20:08:43.076Z,22.53
2023-03-19T20:11:16.896Z,16.50
2023-03-19T20:13:51.464Z,21.73
2023-03-19T20:16:20.133Z,17.87
2023-03-19T20:18:50.998Z,19.57
2023-03-19T20:21:19.588Z,16.97
2023-03-19T20:23:51.130Z,13.73
2023-03-19T20:26:20.878Z,11.40
2023-03-19T20:28:51.061Z,16.33
2023-03-19T20:31:21.362Z,15.17
2023-03-19T20:33:49.974Z,15.13
2023-03-19T20:36:19.633Z,14.27
2023-03-19T20:38:48.158Z,12.53
2023-03-19T20:41:20.232Z,17.03
2023-03-19T20:43:48.713Z,18.77
2023-03-19T20:46:18.810Z,14.97
2023-03-19T20:48:47.890Z,14.23
2023-03-19T20:51:17.439Z,18.27
2023-03-19T20:53:45.856Z,16.63
2023-03-19T20:56:15.935Z,11.73
2023-03-19T20:58:44.377Z,12.63
2023-03-19T21:01:14.299Z,11.83
2023-03-19T21:03:44.468Z,14.73
2023-03-19T21:06:14.767Z,14.43
2023-03-19T21:08:43.458Z,21.13
2023-03-19T21:11:12.537Z,19.40
2023-03-19T21:13:41.358Z,16.67
2023-03-19T21:16:11.065Z,15.57
2023-03-19T21:18:39.561Z,15.20
2023-03-19T21:21:12.155Z,19.97
2023-03-19T21:23:40.571Z,26.20
2023-03-19T21:26:10.348Z,16.60
2023-03-19T21:28:39.119Z,18.47
2023-03-19T21:31:07.712Z,17.13
2023-03-19T21:33:37.097Z,17.27
2023-03-19T21:36:06.416Z,16.73
2023-03-19T21:38:36.472Z,23.50
2023-03-19T21:41:05.568Z,13.97
2023-03-19T21:43:34.982Z,18.13
2023-03-19T21:46:17.367Z,20.53
2023-03-19T21:48:46.342Z,14.37
2023-03-19T21:51:16.350Z,16.80
2023-03-19T21:53:47.708Z,14.93
2023-03-19T21:56:19.453Z,19.53
2023-03-19T21:58:48.202Z,11.53
2023-03-19T22:01:18.091Z,10.20
2023-03-19T22:03:46.975Z,10.23
2023-03-19T22:06:17.073Z,16.40
2023-03-19T22:08:48.285Z,12.67
2023-03-19T22:11:18.003Z,13.80
2023-03-19T22:13:46.461Z,12.93
2023-03-19T22:16:18.275Z,15.27
2023-03-19T22:18:46.775Z,15.77
2023-03-19T22:21:16.572Z,14.47
2023-03-19T22:23:46.062Z,19.03
2023-03-19T22:26:27.231Z,13.27
2023-03-19T22:28:55.910Z,14.17
2023-03-19T22:31:24.647Z,17.93
2023-03-19T22:33:53.246Z,15.90
2023-03-19T22:36:21.624Z,17.93
2023-03-19T22:38:50.090Z,14.67
2023-03-19T22:41:19.412Z,14.73
2023-03-19T22:43:49.224Z,10.67
2023-03-19T22:46:18.469Z,12.50
2023-03-19T22:48:48.564Z,17.77
2023-03-19T22:51:17.505Z,9.73
2023-03-19T22:53:46.144Z,12.80
2023-03-19T22:56:17.014Z,13.43
2023-03-19T22:58:46.925Z,13.17
2023-03-19T23:01:29.245Z,16.50
2023-03-19T23:03:57.999Z,18.50
2023-03-19T23:06:30.732Z,15.40
2023-03-19T23:08:59.465Z,14.60
2023-03-19T23:11:28.240Z,13.70
2023-03-19T23:13:56.936Z,19.10
2023-03-19T23:16:26.940Z,20.33
2023-03-19T23:18:58.038Z,14.73
2023-03-19T23:21:26.782Z,19.50
2023-03-19T23:23:55.248Z,15.83
2023-03-19T23:26:25.482Z,15.27
2023-03-19T23:28:54.342Z,19.27
2023-03-19T23:31:22.787Z,18.50
2023-03-19T23:33:52.814Z,18.03
2023-03-19T23:36:22.016Z,19.03
2023-03-19T23:38:51.844Z,21.37
2023-03-19T23:41:23.971Z,18.13
2023-03-19T23:43:53.204Z,21.33
2023-03-19T23:46:21.640Z,19.23
2023-03-19T23:48:51.960Z,17.03
2023-03-19T23:51:20.765Z,16.47
2023-03-19T23:53:49.389Z,14.70
2023-03-19T23:56:19.996Z,17.93
2023-03-19T23:58:48.597Z,12.33
